Time;durP1;ratioP1;P1;durP2;ratioP2;P2;SDS_P1;SDS_P2;PMS_P1;PMS_P2;Temp;Humidity;BMP_temperature;BMP_pressure;BME280_temperature;BME280_humidity;BME280_pressure;Samples;Min_cycle;Max_cycle;Signal;HPM_P1;HPM_P2
2022/08/19 00:01:21;;;;;;;4.70;3.40;;;22.30;99.90;;;;;;4106638;28;20043;-68
2022/08/19 00:03:22;;;;;;;3.65;3.20;;;22.30;99.90;;;;;;4113125;28;20038;-68
2022/08/19 00:05:23;;;;;;;3.85;3.13;;;22.30;99.90;;;;;;4115869;28;20101;-69
2022/08/19 00:07:23;;;;;;;7.68;3.20;;;22.30;99.90;;;;;;4115129;28;20043;-68
2022/08/19 00:09:25;;;;;;;4.20;3.38;;;22.30;99.90;;;;;;4112177;28;20490;-69
2022/08/19 00:11:27;;;;;;;4.72;3.50;;;22.30;99.90;;;;;;4114159;28;20622;-68
2022/08/19 00:13:28;;;;;;;4.18;3.78;;;22.30;99.90;;;;;;4116146;28;20034;-69
2022/08/19 00:15:29;;;;;;;4.07;3.47;;;22.30;99.90;;;;;;4114548;28;20046;-69
2022/08/19 00:17:29;;;;;;;4.93;2.97;;;22.20;99.90;;;;;;4114451;28;20027;-68
2022/08/19 00:19:31;;;;;;;3.67;3.10;;;22.20;99.90;;;;;;4118173;28;20050;-68
2022/08/19 00:21:31;;;;;;;4.95;3.08;;;22.20;99.90;;;;;;4111469;28;20074;-68
2022/08/19 00:23:34;;;;;;;3.22;2.83;;;22.20;99.90;;;;;;4114394;28;20159;-68
2022/08/19 00:25:36;;;;;;;4.90;3.72;;;22.20;99.90;;;;;;4110163;28;20584;-68
2022/08/19 00:27:37;;;;;;;3.95;3.50;;;22.20;99.90;;;;;;4115272;28;20039;-69
2022/08/19 00:29:37;;;;;;;3.92;3.53;;;22.20;99.90;;;;;;4112887;28;20118;-68
2022/08/19 00:31:40;;;;;;;4.00;3.08;;;22.10;99.90;;;;;;4110037;28;20153;-69
2022/08/19 00:33:40;;;;;;;5.15;3.65;;;22.20;99.90;;;;;;4113890;28;20117;-69
2022/08/19 00:35:41;;;;;;;3.90;3.25;;;22.20;99.90;;;;;;4113259;28;20053;-68
2022/08/19 00:37:43;;;;;;;4.75;3.45;;;22.20;99.90;;;;;;4112969;28;20097;-68
2022/08/19 00:39:43;;;;;;;4.68;3.80;;;22.10;99.90;;;;;;4113066;28;20035;-68
2022/08/19 00:41:48;;;;;;;3.95;3.30;;;22.10;99.90;;;;;;4112821;28;20062;-68
2022/08/19 00:44:01;;;;;;;3.40;3.08;;;22.00;99.90;;;;;;4114326;28;20038;-68
2022/08/19 00:46:04;;;;;;;4.95;3.60;;;22.00;99.90;;;;;;4112490;28;20576;-69
2022/08/19 00:48:05;;;;;;;4.22;3.50;;;21.90;99.90;;;;;;4112348;28;20449;-68
2022/08/19 00:50:08;;;;;;;6.18;3.60;;;21.80;99.90;;;;;;4114711;28;20085;-69
2022/08/19 00:52:13;;;;;;;4.80;3.63;;;21.70;99.90;;;;;;4112102;28;20531;-69
2022/08/19 00:54:15;;;;;;;5.22;3.85;;;21.80;99.90;;;;;;4116700;28;20033;-69
2022/08/19 00:56:17;;;;;;;3.75;3.38;;;21.70;99.90;;;;;;4112072;28;20429;-69
2022/08/19 00:58:20;;;;;;;3.90;3.45;;;21.70;99.90;;;;;;4114331;28;20034;-68
2022/08/19 01:00:22;;;;;;;4.30;3.38;;;21.70;99.90;;;;;;4111123;28;20074;-67
2022/08/19 01:02:24;;;;;;;8.40;3.30;;;21.70;99.90;;;;;;4112925;28;20031;-68
2022/08/19 01:04:24;;;;;;;4.07;3.10;;;21.70;99.90;;;;;;4116698;28;20034;-68
2022/08/19 01:06:26;;;;;;;3.53;3.13;;;21.70;99.90;;;;;;4114713;28;20383;-69
2022/08/19 01:08:26;;;;;;;3.70;3.30;;;21.70;99.90;;;;;;4115965;28;20035;-69
2022/08/19 01:10:30;;;;;;;5.00;3.72;;;21.70;99.90;;;;;;4113671;28;20125;-68
2022/08/19 01:12:31;;;;;;;5.75;3.95;;;21.70;99.90;;;;;;4116071;28;20134;-68
2022/08/19 01:14:32;;;;;;;3.80;3.13;;;21.60;99.90;;;;;;4115628;28;20035;-69
2022/08/19 01:16:34;;;;;;;4.68;3.35;;;21.60;99.90;;;;;;4117995;28;20093;-68
2022/08/19 01:18:40;;;;;;;3.67;3.30;;;21.60;99.90;;;;;;4117498;28;20046;-69
2022/08/19 01:20:42;;;;;;;6.93;3.28;;;21.60;99.90;;;;;;4114741;28;20081;-68
2022/08/19 01:22:47;;;;;;;6.60;3.43;;;21.50;99.90;;;;;;4117846;28;20037;-68
2022/08/19 01:24:48;;;;;;;4.03;3.20;;;21.50;99.90;;;;;;4118232;28;20494;-68
2022/08/19 01:26:49;;;;;;;4.47;3.50;;;21.50;99.90;;;;;;4117828;28;20054;-69
2022/08/19 01:28:53;;;;;;;3.85;3.45;;;21.50;99.90;;;;;;4101907;28;20031;-69
2022/08/19 01:30:55;;;;;;;4.53;3.50;;;21.50;99.90;;;;;;4116181;28;20043;-69
2022/08/19 01:32:56;;;;;;;4.45;3.65;;;21.50;99.90;;;;;;4118938;28;20494;-68
2022/08/19 01:34:57;;;;;;;3.47;3.17;;;21.50;99.90;;;;;;4119687;28;20054;-68
2022/08/19 01:36:58;;;;;;;4.60;3.40;;;21.50;99.90;;;;;;4117743;28;20093;-68
2022/08/19 01:39:00;;;;;;;4.93;3.47;;;21.50;99.90;;;;;;4114653;28;20367;-68
2022/08/19 01:41:01;;;;;;;5.10;3.85;;;21.50;99.90;;;;;;4111176;28;20027;-68
2022/08/19 01:43:02;;;;;;;7.18;3.85;;;21.40;99.90;;;;;;4117336;28;20129;-69
2022/08/19 01:45:05;;;;;;;4.47;4.03;;;21.40;99.90;;;;;;4115975;28;20042;-68
2022/08/19 01:47:06;;;;;;;;;;;21.40;99.90;;;;;;4115109;28;20053;-69
2022/08/19 01:49:07;;;;;;;5.03;3.78;;;21.50;99.90;;;;;;4115759;28;19957;-68
2022/08/19 01:51:10;;;;;;;5.28;3.72;;;21.40;99.90;;;;;;4115392;28;20080;-68
2022/08/19 01:53:11;;;;;;;5.47;4.03;;;21.40;99.90;;;;;;4118992;28;20035;-68
2022/08/19 01:55:15;;;;;;;4.22;3.78;;;21.40;99.90;;;;;;4117449;28;20039;-68
2022/08/19 01:57:16;;;;;;;4.30;3.90;;;21.40;99.90;;;;;;4119111;28;20031;-68
2022/08/19 01:59:20;;;;;;;5.60;4.18;;;21.40;99.90;;;;;;4114671;28;20041;-68
2022/08/19 02:01:20;;;;;;;4.97;4.20;;;21.30;99.90;;;;;;4117431;28;20046;-67
2022/08/19 02:03:22;;;;;;;5.18;4.68;;;21.30;99.90;;;;;;4119024;28;20031;-68
2022/08/19 02:05:23;;;;;;;6.72;4.38;;;21.30;99.90;;;;;;4111528;28;20042;-68
2022/08/19 02:07:23;;;;;;;4.90;4.00;;;21.30;99.90;;;;;;4115061;28;20109;-68
2022/08/19 02:09:24;;;;;;;6.13;4.82;;;21.30;99.90;;;;;;4116618;28;20062;-68
2022/08/19 02:11:31;;;;;;;5.00;4.03;;;21.30;99.90;;;;;;4113013;28;20054;-68
2022/08/19 02:13:33;;;;;;;4.88;4.32;;;21.20;99.90;;;;;;4117725;28;20574;-68
2022/08/19 02:15:33;;;;;;;5.25;3.88;;;21.10;99.90;;;;;;4116853;28;20026;-68
2022/08/19 02:17:34;;;;;;;5.13;4.53;;;21.10;99.90;;;;;;4112908;28;20031;-68
2022/08/19 02:19:35;;;;;;;4.72;4.18;;;21.10;99.90;;;;;;4115642;28;20920;-69
2022/08/19 02:21:36;;;;;;;6.00;3.90;;;21.10;99.90;;;;;;4113845;28;20409;-68
2022/08/19 02:23:37;;;;;;;3.58;3.28;;;21.00;99.90;;;;;;4116569;28;20038;-68
2022/08/19 02:25:38;;;;;;;4.28;3.88;;;21.00;99.90;;;;;;4116586;28;20035;-68
2022/08/19 02:27:39;;;;;;;5.30;4.25;;;21.00;99.90;;;;;;4117720;28;20037;-69
2022/08/19 02:29:40;;;;;;;5.10;3.75;;;21.00;99.90;;;;;;4114785;28;20117;-67
2022/08/19 02:31:41;;;;;;;4.80;4.10;;;20.90;99.90;;;;;;4115317;28;20043;-68
2022/08/19 02:33:42;;;;;;;5.18;4.35;;;20.90;99.90;;;;;;4112845;28;20049;-68
2022/08/19 02:35:44;;;;;;;5.05;4.45;;;20.90;99.90;;;;;;4113147;28;20035;-68
2022/08/19 02:40:04;;;;;;;6.07;4.25;;;20.90;99.90;;;;;;4113506;28;20042;-69
2022/08/19 02:42:05;;;;;;;6.13;4.03;;;20.90;99.90;;;;;;4114133;28;20046;-68
2022/08/19 02:44:06;;;;;;;7.75;4.55;;;20.90;99.90;;;;;;4121301;28;20030;-68
2022/08/19 02:46:20;;;;;;;5.53;4.60;;;20.90;99.90;;;;;;4114863;28;20042;-68
2022/08/19 02:48:23;;;;;;;6.28;4.75;;;20.90;99.90;;;;;;4114641;28;20113;-67
2022/08/19 02:50:23;;;;;;;5.25;4.20;;;20.80;99.90;;;;;;4116521;28;20062;-68
2022/08/19 02:52:25;;;;;;;4.85;4.20;;;20.80;99.90;;;;;;4116196;28;20031;-67
2022/08/19 02:54:25;;;;;;;5.80;4.82;;;20.80;99.90;;;;;;4113998;28;20537;-68
2022/08/19 02:56:27;;;;;;;5.60;4.55;;;20.80;99.90;;;;;;4116321;28;20026;-68
2022/08/19 02:58:27;;;;;;;3.85;3.45;;;20.70;99.90;;;;;;4115861;28;20421;-68
2022/08/19 03:00:28;;;;;;;5.78;4.65;;;20.70;99.90;;;;;;4113056;28;20039;-68
2022/08/19 03:02:30;;;;;;;7.85;5.05;;;20.60;99.90;;;;;;4118404;28;20043;-68
2022/08/19 03:04:30;;;;;;;5.18;4.60;;;20.70;99.90;;;;;;4099445;28;20517;-68
2022/08/19 03:06:32;;;;;;;6.45;4.95;;;20.60;99.90;;;;;;4114708;28;20035;-68
2022/08/19 03:08:32;;;;;;;7.20;4.57;;;20.60;99.90;;;;;;4114878;28;20026;-67
2022/08/19 03:10:38;;;;;;;6.93;4.78;;;20.60;99.90;;;;;;4115888;28;20548;-68
2022/08/19 03:12:39;;;;;;;5.25;4.50;;;20.60;99.90;;;;;;4111327;28;20113;-68
2022/08/19 03:14:40;;;;;;;6.47;4.60;;;20.60;99.90;;;;;;4118555;28;20022;-69
2022/08/19 03:16:48;;;;;;;5.00;4.47;;;20.70;99.90;;;;;;4114176;28;20039;-67
2022/08/19 03:18:49;;;;;;;5.50;4.57;;;20.60;99.90;;;;;;4119475;28;20038;-68
2022/08/19 03:20:54;;;;;;;6.28;4.72;;;20.60;99.90;;;;;;4108417;28;20045;-69
2022/08/19 03:22:54;;;;;;;6.65;4.70;;;20.60;99.90;;;;;;4110610;28;20130;-68
2022/08/19 03:24:55;;;;;;;5.63;4.25;;;20.50;99.90;;;;;;4112021;28;20411;-68
2022/08/19 03:26:59;;;;;;;6.80;5.28;;;20.50;99.90;;;;;;4110562;28;20031;-68
2022/08/19 03:29:04;;;;;;;6.80;5.88;;;20.50;99.90;;;;;;4108966;28;20042;-68
2022/08/19 03:31:09;;;;;;;6.03;5.35;;;20.50;99.90;;;;;;4108544;28;20047;-69
2022/08/19 03:33:13;;;;;;;6.47;4.78;;;20.60;99.90;;;;;;4111913;28;20462;-69
2022/08/19 03:35:14;;;;;;;7.00;5.75;;;20.60;99.90;;;;;;4110454;28;20043;-68
2022/08/19 03:37:15;;;;;;;8.75;7.03;;;20.50;99.90;;;;;;4111755;28;20031;-68
2022/08/19 03:39:16;;;;;;;7.85;6.78;;;20.60;99.90;;;;;;4111501;28;20089;-68
2022/08/19 03:41:19;;;;;;;8.45;6.97;;;20.60;99.90;;;;;;4108879;28;20161;-68
2022/08/19 03:43:20;;;;;;;7.97;6.18;;;20.60;99.90;;;;;;4112019;28;20512;-68
2022/08/19 03:45:21;;;;;;;8.00;5.65;;;20.60;99.90;;;;;;4108872;28;20035;-68
2022/08/19 03:47:21;;;;;;;6.65;5.97;;;20.60;99.90;;;;;;4110425;28;20114;-68
2022/08/19 03:49:24;;;;;;;6.80;5.88;;;20.60;99.90;;;;;;4111012;28;20035;-68
2022/08/19 03:51:26;;;;;;;;;;;20.60;99.90;;;;;;4109433;28;20035;-68
2022/08/19 03:53:29;;;;;;;7.72;6.22;;;20.50;99.90;;;;;;4108935;28;19964;-68
2022/08/19 03:55:30;;;;;;;7.93;6.45;;;20.60;99.90;;;;;;4107117;28;20070;-68
2022/08/19 03:57:32;;;;;;;7.72;6.47;;;20.60;99.90;;;;;;4111076;28;20043;-69
2022/08/19 03:59:35;;;;;;;7.90;6.57;;;20.60;99.90;;;;;;4111487;28;20034;-68
2022/08/19 04:01:35;;;;;;;7.13;6.15;;;20.60;99.90;;;;;;4108975;28;20038;-68
2022/08/19 04:03:36;;;;;;;8.43;6.18;;;20.60;99.90;;;;;;4110116;28;20501;-68
2022/08/19 04:05:37;;;;;;;10.32;6.63;;;20.60;99.90;;;;;;4110483;28;20047;-68
2022/08/19 04:07:38;;;;;;;8.73;6.35;;;20.60;99.90;;;;;;4109732;28;20572;-68
2022/08/19 04:09:38;;;;;;;13.80;5.95;;;20.50;99.90;;;;;;4094213;29;20035;-68
2022/08/19 04:11:57;;;;;;;7.45;6.05;;;20.50;99.90;;;;;;4107445;28;20057;-68
2022/08/19 04:14:00;;;;;;;7.85;5.68;;;20.40;99.90;;;;;;4110250;28;20058;-68
2022/08/19 04:16:00;;;;;;;8.02;6.95;;;20.40;99.90;;;;;;4111075;28;20053;-68
2022/08/19 04:18:01;;;;;;;10.18;7.78;;;20.50;99.90;;;;;;4113833;28;20037;-68
2022/08/19 04:20:02;;;;;;;10.15;7.65;;;20.50;99.90;;;;;;4118110;28;20081;-69
2022/08/19 04:22:04;;;;;;;10.40;7.57;;;20.50;99.90;;;;;;4107358;28;20034;-67
2022/08/19 04:24:05;;;;;;;9.65;7.70;;;20.50;99.90;;;;;;4116386;28;20152;-68
2022/08/19 04:26:06;;;;;;;10.23;8.35;;;20.50;99.90;;;;;;4113578;28;20094;-68
2022/08/19 04:28:08;;;;;;;10.48;8.63;;;20.50;99.90;;;;;;4112292;28;20019;-68
2022/08/19 04:30:09;;;;;;;8.02;7.07;;;20.50;99.90;;;;;;4110633;28;20071;-70
2022/08/19 04:32:10;;;;;;;9.43;8.20;;;20.50;99.90;;;;;;4106798;28;20041;-68
2022/08/19 04:34:14;;;;;;;10.80;8.35;;;20.60;99.90;;;;;;4110645;28;20490;-67
2022/08/19 04:36:20;;;;;;;11.57;8.77;;;20.50;99.90;;;;;;4110806;28;20504;-67
2022/08/19 04:38:24;;;;;;;11.00;8.68;;;20.40;99.90;;;;;;4111205;28;20536;-68
2022/08/19 04:42:44;;;;;;;12.95;10.98;;;20.40;99.90;;;;;;4110232;28;20042;-67
2022/08/19 04:44:45;;;;;;;17.17;11.45;;;20.40;99.90;;;;;;4114365;28;20042;-67
2022/08/19 04:46:47;;;;;;;17.77;13.65;;;20.30;99.90;;;;;;4098984;28;20061;-67
2022/08/19 04:48:48;;;;;;;;;;;20.30;99.90;;;;;;4115617;28;20042;-67
2022/08/19 04:50:48;;;;;;;14.77;12.48;;;20.30;99.90;;;;;;4114211;28;19910;-67
2022/08/19 04:52:51;;;;;;;16.73;14.07;;;20.30;99.90;;;;;;4114328;28;20075;-67
2022/08/19 04:54:51;;;;;;;17.35;14.38;;;20.20;99.90;;;;;;4109658;28;20061;-68
2022/08/19 04:56:53;;;;;;;19.90;15.45;;;20.30;99.90;;;;;;4112578;28;20034;-68
2022/08/19 04:58:54;;;;;;;19.55;15.73;;;20.30;99.90;;;;;;4097279;29;20050;-68
2022/08/19 05:00:55;;;;;;;17.43;14.13;;;20.30;99.90;;;;;;4110971;28;20030;-67
2022/08/19 05:02:56;;;;;;;18.65;14.77;;;20.30;99.90;;;;;;4114595;28;20548;-68
2022/08/19 05:05:01;;;;;;;18.05;15.10;;;20.30;99.90;;;;;;4113467;28;20043;-66
2022/08/19 05:07:02;;;;;;;18.45;15.20;;;20.30;99.90;;;;;;4113158;28;20035;-68
2022/08/19 05:09:04;;;;;;;18.33;14.70;;;20.40;99.90;;;;;;4113833;28;20038;-67
2022/08/19 05:11:27;;;;;;;19.15;14.80;;;20.40;99.90;;;;;;4108549;28;20031;-67
2022/08/19 05:13:28;;;;;;;18.83;15.02;;;20.40;99.90;;;;;;4110473;28;20050;-67
2022/08/19 05:15:28;;;;;;;22.60;16.52;;;20.40;99.90;;;;;;4113467;28;20035;-67
2022/08/19 05:17:29;;;;;;;23.05;17.08;;;20.40;99.90;;;;;;4113678;28;20387;-67
2022/08/19 05:24:09;;;;;;;23.60;17.65;;;20.50;99.90;;;;;;4114882;28;20041;-70
2022/08/19 05:26:10;;;;;;;21.80;17.95;;;20.60;99.90;;;;;;4109621;28;20046;-70
2022/08/19 05:28:11;;;;;;;24.52;19.35;;;20.60;99.90;;;;;;4113439;28;20047;-70
2022/08/19 05:30:12;;;;;;;23.50;19.40;;;20.60;99.90;;;;;;4112435;28;20460;-70
2022/08/19 05:32:13;;;;;;;23.65;19.95;;;20.70;99.90;;;;;;4112016;28;20039;-70
2022/08/19 05:34:13;;;;;;;24.52;20.40;;;20.70;99.90;;;;;;4113485;28;20037;-71
2022/08/19 05:36:14;;;;;;;22.40;18.95;;;20.70;99.90;;;;;;4109634;28;20056;-70
2022/08/19 05:38:16;;;;;;;23.38;19.05;;;20.80;99.90;;;;;;4109581;28;20031;-70
2022/08/19 05:40:17;;;;;;;25.35;20.33;;;20.80;99.90;;;;;;4105228;28;20039;-70
2022/08/19 05:42:19;;;;;;;29.58;22.67;;;20.80;99.90;;;;;;4112617;28;20371;-71
2022/08/19 05:44:21;;;;;;;25.02;21.23;;;20.90;99.90;;;;;;4111994;28;20517;-71
2022/08/19 05:46:22;;;;;;;28.17;22.33;;;20.90;99.90;;;;;;4095714;28;20024;-71
2022/08/19 05:48:22;;;;;;;27.60;22.48;;;20.90;99.90;;;;;;4112974;28;20050;-69
2022/08/19 05:50:23;;;;;;;29.80;23.73;;;21.00;99.90;;;;;;4111833;28;20035;-71
2022/08/19 05:52:24;;;;;;;26.73;21.73;;;21.00;99.90;;;;;;4113094;28;20043;-71
2022/08/19 05:54:25;;;;;;;25.27;20.85;;;21.00;99.90;;;;;;4113248;28;20367;-71
2022/08/19 05:56:26;;;;;;;24.73;20.70;;;21.00;99.90;;;;;;4112259;28;20030;-71
2022/08/19 05:58:26;;;;;;;26.73;22.35;;;21.00;99.90;;;;;;4110630;28;20027;-70
2022/08/19 06:00:27;;;;;;;26.10;21.77;;;21.10;99.90;;;;;;4109867;28;20031;-72
2022/08/19 06:02:30;;;;;;;30.55;23.20;;;21.10;99.90;;;;;;4112768;28;20106;-69
2022/08/19 06:04:30;;;;;;;30.10;24.95;;;21.20;99.90;;;;;;4111691;28;20118;-71
2022/08/19 06:06:33;;;;;;;30.40;25.08;;;21.20;99.90;;;;;;4111681;28;20065;-71
2022/08/19 06:08:36;;;;;;;29.27;23.48;;;21.20;99.90;;;;;;4111545;28;20531;-70
2022/08/19 06:10:36;;;;;;;27.90;22.20;;;21.20;99.90;;;;;;4108379;28;20122;-71
2022/08/19 06:12:37;;;;;;;31.23;25.30;;;21.30;99.90;;;;;;4112799;28;20565;-71
2022/08/19 06:14:38;;;;;;;29.42;24.02;;;21.30;99.90;;;;;;4113137;28;20486;-72
2022/08/19 06:16:40;;;;;;;31.80;24.60;;;21.30;99.90;;;;;;4107943;28;20434;-72
2022/08/19 06:18:41;;;;;;;30.60;24.98;;;21.30;99.90;;;;;;4112025;28;20084;-70
2022/08/19 06:20:42;;;;;;;29.42;22.95;;;21.40;99.90;;;;;;4107917;28;20062;-70
2022/08/19 06:22:45;;;;;;;32.25;24.38;;;21.40;99.90;;;;;;4112892;28;20053;-71
2022/08/19 06:24:45;;;;;;;31.05;24.23;;;21.40;99.90;;;;;;4112791;28;20039;-71
2022/08/19 06:26:48;;;;;;;27.23;22.35;;;21.40;99.90;;;;;;4109408;28;20054;-71
2022/08/19 06:28:49;;;;;;;;;;;21.50;99.90;;;;;;4106814;28;20142;-71
2022/08/19 06:30:51;;;;;;;31.02;23.95;;;21.50;99.90;;;;;;4096604;28;19964;-71
2022/08/19 06:32:51;;;;;;;31.80;25.08;;;21.50;99.90;;;;;;4111973;28;20525;-71
2022/08/19 06:34:52;;;;;;;29.75;24.02;;;21.50;99.90;;;;;;4109260;28;20031;-71
2022/08/19 06:36:54;;;;;;;28.42;24.08;;;21.50;99.90;;;;;;4110041;28;20034;-72
2022/08/19 06:38:55;;;;;;;32.33;26.13;;;21.50;99.90;;;;;;4109506;28;20023;-72
2022/08/19 06:41:05;;;;;;;38.20;29.60;;;21.50;99.90;;;;;;4113770;28;20071;-71
2022/08/19 06:43:06;;;;;;;34.35;27.02;;;21.50;99.90;;;;;;4108281;28;20035;-71
2022/08/19 06:45:08;;;;;;;31.38;23.10;;;21.50;99.90;;;;;;4095306;28;20113;-72
2022/08/19 06:47:11;;;;;;;29.70;23.58;;;21.60;99.90;;;;;;4092244;28;20046;-72
2022/08/19 06:49:13;;;;;;;32.50;23.23;;;21.70;99.90;;;;;;4104167;28;20230;-72
2022/08/19 06:51:18;;;;;;;28.55;22.17;;;22.00;99.90;;;;;;4106187;28;20039;-71
2022/08/19 06:53:19;;;;;;;27.67;22.58;;;22.20;99.90;;;;;;4108894;28;20035;-72
2022/08/19 06:55:19;;;;;;;25.48;21.10;;;22.40;99.90;;;;;;4108167;28;20489;-71
2022/08/19 06:57:20;;;;;;;22.63;18.45;;;22.70;99.90;;;;;;4104973;28;20038;-72
2022/08/19 06:59:27;;;;;;;27.73;20.25;;;23.00;99.90;;;;;;4092723;28;20455;-72
2022/08/19 07:01:28;;;;;;;23.77;18.65;;;23.30;99.90;;;;;;4105255;28;20047;-73
2022/08/19 07:03:34;;;;;;;28.00;21.52;;;23.70;99.90;;;;;;4109088;28;20041;-71
2022/08/19 07:05:40;;;;;;;25.52;19.75;;;23.90;99.90;;;;;;4109252;28;20043;-72
2022/08/19 07:07:42;;;;;;;26.67;19.30;;;24.10;99.90;;;;;;4108754;28;20085;-71
2022/08/19 07:09:44;;;;;;;18.48;14.77;;;24.10;99.90;;;;;;4106869;28;20118;-70
2022/08/19 07:11:47;;;;;;;20.42;13.80;;;24.40;99.90;;;;;;4103775;28;20054;-71
2022/08/19 07:13:48;;;;;;;23.45;16.77;;;24.70;99.90;;;;;;4103964;28;20049;-71
2022/08/19 07:15:50;;;;;;;18.10;13.10;;;24.80;99.90;;;;;;4108287;28;20486;-71
2022/08/19 07:17:51;;;;;;;22.20;17.13;;;25.00;99.90;;;;;;4113881;28;20038;-72
2022/08/19 07:19:52;;;;;;;20.63;16.88;;;25.10;99.90;;;;;;4095740;28;20486;-72
2022/08/19 07:21:54;;;;;;;21.45;16.77;;;25.20;99.90;;;;;;4106009;28;20070;-72
2022/08/19 07:23:56;;;;;;;18.48;14.98;;;25.20;99.90;;;;;;4112998;28;20035;-73
2022/08/19 07:25:57;;;;;;;;;;;25.20;99.90;;;;;;4111630;28;20073;-73
2022/08/19 07:27:57;;;;;;;22.40;15.98;;;25.20;99.90;;;;;;4110093;28;19918;-71
2022/08/19 07:29:58;;;;;;;24.88;18.42;;;25.20;99.90;;;;;;4111152;28;20047;-71
2022/08/19 07:32:00;;;;;;;29.27;22.83;;;25.10;99.90;;;;;;4111450;28;20045;-71
2022/08/19 07:34:01;;;;;;;39.42;23.42;;;25.10;99.90;;;;;;4111276;28;20074;-72
2022/08/19 07:36:05;;;;;;;36.28;22.90;;;25.10;99.90;;;;;;4108577;28;20042;-72
2022/08/19 07:38:05;;;;;;;39.42;23.77;;;25.10;99.90;;;;;;4109060;28;20041;-72
2022/08/19 07:40:07;;;;;;;35.65;26.95;;;25.10;99.90;;;;;;4107718;28;20114;-71
2022/08/19 07:42:10;;;;;;;31.58;22.65;;;25.10;99.90;;;;;;4106928;28;20121;-72
2022/08/19 07:44:10;;;;;;;;;;;25.20;99.90;;;;;;4110946;28;20137;-73
2022/08/19 07:46:13;;;;;;;41.55;28.10;;;25.10;99.90;;;;;;4109054;28;19953;-75
2022/08/19 07:48:14;;;;;;;45.58;28.45;;;25.10;99.90;;;;;;4110195;28;20043;-73
2022/08/19 07:50:16;;;;;;;34.72;25.10;;;25.10;99.90;;;;;;4106334;28;20371;-70
2022/08/19 07:52:16;;;;;;;41.63;29.25;;;25.10;99.90;;;;;;4108931;28;20089;-73
2022/08/19 07:54:18;;;;;;;38.25;28.35;;;25.10;99.90;;;;;;4106687;28;20031;-73
2022/08/19 07:56:21;;;;;;;39.95;28.33;;;24.90;99.90;;;;;;4107206;28;20060;-73
2022/08/19 07:58:22;;;;;;;30.45;22.70;;;24.90;99.90;;;;;;4109408;28;20062;-72
2022/08/19 08:00:23;;;;;;;30.00;22.33;;;24.90;99.90;;;;;;4107465;28;20066;-70
2022/08/19 08:02:24;;;;;;;30.20;22.23;;;24.90;99.90;;;;;;4107691;28;20035;-72
2022/08/19 08:09:20;;;;;;;38.42;28.20;;;24.90;99.90;;;;;;4108182;28;20042;-72
2022/08/19 08:11:21;;;;;;;33.00;23.83;;;24.90;99.90;;;;;;4109546;28;20070;-71
2022/08/19 08:13:22;;;;;;;32.72;22.83;;;24.90;99.90;;;;;;4108433;28;20042;-72
2022/08/19 08:15:22;;;;;;;34.67;23.40;;;24.90;99.90;;;;;;4109132;28;20410;-72
2022/08/19 08:17:26;;;;;;;35.65;23.98;;;25.00;99.90;;;;;;4106790;28;20034;-67
2022/08/19 08:19:27;;;;;;;30.83;22.42;;;25.10;99.90;;;;;;4108239;28;20027;-66
2022/08/19 08:21:28;;;;;;;33.72;22.38;;;25.00;99.90;;;;;;4106315;28;20031;-67
2022/08/19 08:23:29;;;;;;;31.70;22.75;;;25.10;99.90;;;;;;4109880;28;20039;-68
2022/08/19 08:25:31;;;;;;;32.67;22.37;;;25.10;99.90;;;;;;4109057;28;20049;-67
2022/08/19 08:27:34;;;;;;;32.45;24.20;;;25.20;99.90;;;;;;4107896;28;20047;-67
2022/08/19 08:29:35;;;;;;;28.50;20.13;;;25.20;99.90;;;;;;4107738;28;20054;-66
2022/08/19 08:31:36;;;;;;;27.65;20.30;;;25.30;99.90;;;;;;4105467;28;20122;-66
2022/08/19 08:33:36;;;;;;;31.60;21.13;;;25.40;99.90;;;;;;4094764;28;20043;-67
2022/08/19 08:35:41;;;;;;;27.25;19.25;;;25.40;99.90;;;;;;4105028;28;20034;-67
2022/08/19 08:37:43;;;;;;;28.45;19.73;;;25.50;99.90;;;;;;4107277;28;20722;-66
2022/08/19 08:39:44;;;;;;;30.08;21.38;;;25.60;99.90;;;;;;4107586;28;20087;-66
2022/08/19 08:42:01;;;;;;;32.80;23.35;;;25.60;99.90;;;;;;4106892;28;20039;-66
2022/08/19 08:44:04;;;;;;;29.38;20.92;;;25.60;99.90;;;;;;4107788;28;20505;-67
2022/08/19 08:46:09;;;;;;;24.02;18.60;;;25.70;99.90;;;;;;4106864;28;20027;-66
2022/08/19 08:48:24;;;;;;;24.65;18.60;;;25.70;99.90;;;;;;4108542;28;20039;-66
2022/08/19 08:50:38;;;;;;;23.88;18.60;;;25.90;99.90;;;;;;4105055;28;20059;-66
2022/08/19 08:52:46;;;;;;;23.17;17.17;;;25.90;99.90;;;;;;4109190;28;20035;-66
2022/08/19 08:54:50;;;;;;;22.23;17.17;;;26.00;99.90;;;;;;4108829;28;20031;-66
2022/08/19 08:56:52;;;;;;;21.55;16.38;;;26.00;99.90;;;;;;4107713;28;20027;-67
2022/08/19 08:59:08;;;;;;;27.20;17.77;;;26.10;99.90;;;;;;4106759;28;20027;-66
2022/08/19 09:01:12;;;;;;;30.20;20.60;;;26.10;99.90;;;;;;4107601;28;20486;-66
2022/08/19 09:03:19;;;;;;;28.05;21.15;;;26.10;99.90;;;;;;4108876;28;20054;-66
2022/08/19 09:05:22;;;;;;;30.10;21.05;;;26.10;99.90;;;;;;4108419;28;20046;-67
2022/08/19 09:07:43;;;;;;;30.90;19.08;;;26.20;99.90;;;;;;4107120;28;20030;-66
2022/08/19 09:09:48;;;;;;;23.55;16.60;;;26.30;99.90;;;;;;4108020;28;20126;-66
2022/08/19 09:12:15;;;;;;;33.25;22.23;;;26.30;99.90;;;;;;4107504;28;21166;-66
2022/08/19 09:14:41;;;;;;;28.70;20.10;;;26.20;99.90;;;;;;4066319;28;20039;-66
2022/08/19 09:16:42;;;;;;;19.83;15.43;;;26.20;99.90;;;;;;4108640;28;20050;-67
2022/08/19 09:18:46;;;;;;;22.48;16.40;;;26.20;99.70;;;;;;4108439;28;20375;-66
2022/08/19 09:20:47;;;;;;;22.05;15.63;;;26.20;99.90;;;;;;4107774;28;20129;-66
2022/08/19 09:22:49;;;;;;;19.75;15.15;;;26.10;99.30;;;;;;4108145;28;20548;-66
2022/08/19 09:24:52;;;;;;;24.00;18.40;;;26.10;99.40;;;;;;4112983;28;20125;-66
2022/08/19 09:26:52;;;;;;;21.77;15.25;;;26.10;99.70;;;;;;4107364;28;20089;-66
2022/08/19 09:28:54;;;;;;;26.25;16.90;;;26.20;99.80;;;;;;4107937;28;20120;-67
2022/08/19 09:30:55;;;;;;;19.53;14.60;;;26.10;99.90;;;;;;4097701;28;20091;-65
2022/08/19 09:32:55;;;;;;;22.35;15.20;;;26.20;99.90;;;;;;4110608;28;20259;-66
2022/08/19 09:34:57;;;;;;;26.05;19.10;;;26.20;99.80;;;;;;4114186;28;20049;-66
2022/08/19 09:36:59;;;;;;;22.08;13.88;;;26.30;99.90;;;;;;4110148;28;20042;-66
2022/08/19 09:39:00;;;;;;;21.45;15.68;;;26.30;99.90;;;;;;4114093;28;20042;-66
2022/08/19 09:41:06;;;;;;;19.83;15.20;;;26.30;99.40;;;;;;4108068;28;20096;-67
2022/08/19 09:43:07;;;;;;;23.08;17.20;;;26.40;99.90;;;;;;4110724;28;20039;-65
2022/08/19 09:45:08;;;;;;;23.90;18.55;;;26.50;99.50;;;;;;4109256;28;20371;-67
2022/08/19 09:47:11;;;;;;;22.20;16.60;;;26.50;99.20;;;;;;4110686;28;20049;-67
2022/08/19 09:49:12;;;;;;;20.02;15.48;;;26.50;98.50;;;;;;4110176;28;20047;-66
2022/08/19 09:51:17;;;;;;;14.73;12.25;;;26.40;98.30;;;;;;4109137;28;20453;-67
2022/08/19 09:53:18;;;;;;;17.42;12.32;;;26.50;98.70;;;;;;4109758;28;20050;-66
2022/08/19 09:55:19;;;;;;;18.98;13.45;;;26.60;98.60;;;;;;4109148;28;20410;-66
2022/08/19 09:57:20;;;;;;;15.73;12.80;;;26.60;98.60;;;;;;4110070;28;20039;-66
2022/08/19 09:59:20;;;;;;;14.93;11.48;;;26.60;98.30;;;;;;4109981;28;20054;-66
2022/08/19 10:01:24;;;;;;;15.43;11.73;;;26.60;97.70;;;;;;4108608;28;20094;-66
2022/08/19 10:03:26;;;;;;;15.00;11.20;;;26.60;97.50;;;;;;4108289;28;20432;-65
2022/08/19 10:07:46;;;;;;;17.17;9.65;;;26.60;97.00;;;;;;4101205;28;20054;-67
2022/08/19 10:09:47;;;;;;;23.75;13.93;;;26.70;97.50;;;;;;4102742;28;20474;-67
2022/08/19 10:11:49;;;;;;;16.23;12.27;;;26.80;97.20;;;;;;4105591;28;20062;-66
2022/08/19 10:13:50;;;;;;;15.00;10.15;;;26.80;98.00;;;;;;4111713;28;20458;-66
2022/08/19 10:15:52;;;;;;;16.42;10.63;;;26.90;97.10;;;;;;4110824;28;20031;-67
2022/08/19 10:17:52;;;;;;;16.23;12.10;;;26.90;96.90;;;;;;4109317;28;20035;-66
2022/08/19 10:19:53;;;;;;;13.50;10.68;;;26.90;96.00;;;;;;4109047;28;20517;-66
2022/08/19 10:21:54;;;;;;;14.75;9.80;;;26.90;95.80;;;;;;4108548;28;20046;-67
2022/08/19 10:23:57;;;;;;;13.00;9.60;;;26.90;96.00;;;;;;4108542;28;20050;-66
2022/08/19 10:26:00;;;;;;;14.13;8.93;;;26.90;96.20;;;;;;4107362;28;20063;-65
2022/08/19 10:28:01;;;;;;;12.63;8.18;;;27.00;96.90;;;;;;4110452;28;20066;-66
2022/08/19 10:30:03;;;;;;;15.23;11.18;;;27.00;96.30;;;;;;4108816;28;20039;-68
2022/08/19 10:32:07;;;;;;;11.73;8.98;;;26.90;96.30;;;;;;4107499;28;20081;-66
2022/08/19 10:34:08;;;;;;;16.60;11.93;;;26.90;96.20;;;;;;4107674;28;20043;-66
2022/08/19 10:36:16;;;;;;;16.48;12.10;;;26.90;96.70;;;;;;4099723;28;20032;-66
2022/08/19 10:38:16;;;;;;;15.07;10.38;;;26.90;96.80;;;;;;4109017;28;20030;-67
2022/08/19 10:40:17;;;;;;;17.20;12.32;;;27.00;97.00;;;;;;4106365;28;20043;-67
2022/08/19 10:42:18;;;;;;;16.55;12.57;;;27.00;96.10;;;;;;4109667;28;20116;-66
2022/08/19 10:44:21;;;;;;;16.90;11.52;;;27.10;96.20;;;;;;4108755;28;20050;-67
2022/08/19 10:46:23;;;;;;;;;;;27.00;95.40;;;;;;4108057;28;20089;-66